sensor_id;sensor_type;location;lat;lon;timestamp;P1;durP1;ratioP1;P2;durP2;ratioP2
23046;SDS011;11691;51.462;6.902;2022-07-23T00:01:35;10.18;;;5.95;;
23046;SDS011;11691;51.462;6.902;2022-07-23T00:04:01;7.85;;;6.03;;
23046;SDS011;11691;51.462;6.902;2022-07-23T00:06:27;7.85;;;5.68;;
23046;SDS011;11691;51.462;6.902;2022-07-23T00:08:53;8.23;;;5.38;;
23046;SDS011;11691;51.462;6.902;2022-07-23T00:11:19;9.43;;;5.90;;
23046;SDS011;11691;51.462;6.902;2022-07-23T00:13:47;9.75;;;5.70;;
23046;SDS011;11691;51.462;6.902;2022-07-23T00:16:12;10.65;;;5.75;;
23046;SDS011;11691;51.462;6.902;2022-07-23T00:18:38;6.82;;;5.65;;
23046;SDS011;11691;51.462;6.902;2022-07-23T00:21:04;8.30;;;5.95;;
23046;SDS011;11691;51.462;6.902;2022-07-23T00:23:30;7.43;;;5.78;;
23046;SDS011;11691;51.462;6.902;2022-07-23T00:25:56;10.40;;;6.03;;
23046;SDS011;11691;51.462;6.902;2022-07-23T00:28:22;13.45;;;6.00;;
23046;SDS011;11691;51.462;6.902;2022-07-23T00:30:48;8.73;;;6.30;;
23046;SDS011;11691;51.462;6.902;2022-07-23T00:33:14;9.10;;;5.43;;
23046;SDS011;11691;51.462;6.902;2022-07-23T00:35:40;8.18;;;5.57;;
23046;SDS011;11691;51.462;6.902;2022-07-23T00:38:07;12.05;;;5.38;;
23046;SDS011;11691;51.462;6.902;2022-07-23T00:40:34;8.45;;;5.88;;
23046;SDS011;11691;51.462;6.902;2022-07-23T00:43:01;9.45;;;6.20;;
23046;SDS011;11691;51.462;6.902;2022-07-23T00:45:27;8.68;;;5.78;;
23046;SDS011;11691;51.462;6.902;2022-07-23T00:47:53;9.65;;;6.03;;
23046;SDS011;11691;51.462;6.902;2022-07-23T00:50:19;8.48;;;5.25;;
23046;SDS011;11691;51.462;6.902;2022-07-23T00:52:45;8.90;;;6.32;;
23046;SDS011;11691;51.462;6.902;2022-07-23T00:55:11;6.60;;;5.32;;
23046;SDS011;11691;51.462;6.902;2022-07-23T00:57:38;9.65;;;5.90;;
23046;SDS011;11691;51.462;6.902;2022-07-23T01:00:05;9.20;;;5.65;;
23046;SDS011;11691;51.462;6.902;2022-07-23T01:02:32;8.75;;;5.82;;
23046;SDS011;11691;51.462;6.902;2022-07-23T01:04:58;9.02;;;6.22;;
23046;SDS011;11691;51.462;6.902;2022-07-23T01:07:24;8.90;;;6.05;;
23046;SDS011;11691;51.462;6.902;2022-07-23T01:09:51;10.23;;;6.15;;
23046;SDS011;11691;51.462;6.902;2022-07-23T01:12:17;8.02;;;6.30;;
23046;SDS011;11691;51.462;6.902;2022-07-23T01:14:43;11.75;;;6.68;;
23046;SDS011;11691;51.462;6.902;2022-07-23T01:17:09;9.30;;;6.15;;
23046;SDS011;11691;51.462;6.902;2022-07-23T01:19:35;10.43;;;6.72;;
23046;SDS011;11691;51.462;6.902;2022-07-23T01:22:02;7.50;;;5.97;;
23046;SDS011;11691;51.462;6.902;2022-07-23T01:24:29;8.63;;;6.25;;
23046;SDS011;11691;51.462;6.902;2022-07-23T01:26:55;8.90;;;6.35;;
23046;SDS011;11691;51.462;6.902;2022-07-23T01:29:21;9.80;;;6.40;;
23046;SDS011;11691;51.462;6.902;2022-07-23T01:31:47;8.40;;;6.15;;
23046;SDS011;11691;51.462;6.902;2022-07-23T01:34:13;8.98;;;6.72;;
23046;SDS011;11691;51.462;6.902;2022-07-23T01:36:39;8.57;;;6.60;;
23046;SDS011;11691;51.462;6.902;2022-07-23T01:39:06;9.85;;;6.97;;
23046;SDS011;11691;51.462;6.902;2022-07-23T01:41:32;8.48;;;7.22;;
23046;SDS011;11691;51.462;6.902;2022-07-23T01:43:58;9.90;;;6.80;;
23046;SDS011;11691;51.462;6.902;2022-07-23T01:46:24;11.27;;;7.85;;
23046;SDS011;11691;51.462;6.902;2022-07-23T01:48:50;11.00;;;8.05;;
23046;SDS011;11691;51.462;6.902;2022-07-23T01:51:16;8.20;;;6.95;;
23046;SDS011;11691;51.462;6.902;2022-07-23T01:53:42;9.65;;;7.60;;
23046;SDS011;11691;51.462;6.902;2022-07-23T01:56:08;10.63;;;7.78;;
23046;SDS011;11691;51.462;6.902;2022-07-23T01:58:34;10.10;;;7.68;;
23046;SDS011;11691;51.462;6.902;2022-07-23T02:01:00;10.40;;;7.07;;
23046;SDS011;11691;51.462;6.902;2022-07-23T02:03:26;10.98;;;7.60;;
23046;SDS011;11691;51.462;6.902;2022-07-23T02:05:52;12.60;;;7.90;;
23046;SDS011;11691;51.462;6.902;2022-07-23T02:08:18;10.40;;;7.47;;
23046;SDS011;11691;51.462;6.902;2022-07-23T02:10:44;9.07;;;7.03;;
23046;SDS011;11691;51.462;6.902;2022-07-23T02:13:11;11.70;;;7.68;;
23046;SDS011;11691;51.462;6.902;2022-07-23T02:15:36;14.25;;;8.13;;
23046;SDS011;11691;51.462;6.902;2022-07-23T02:18:03;10.32;;;6.97;;
23046;SDS011;11691;51.462;6.902;2022-07-23T02:20:29;11.65;;;7.43;;
23046;SDS011;11691;51.462;6.902;2022-07-23T02:22:55;11.30;;;7.32;;
23046;SDS011;11691;51.462;6.902;2022-07-23T02:25:21;10.13;;;7.38;;
23046;SDS011;11691;51.462;6.902;2022-07-23T02:27:47;10.20;;;7.35;;
23046;SDS011;11691;51.462;6.902;2022-07-23T02:30:13;10.05;;;7.20;;
23046;SDS011;11691;51.462;6.902;2022-07-23T02:32:39;7.65;;;6.85;;
23046;SDS011;11691;51.462;6.902;2022-07-23T02:35:06;9.23;;;6.93;;
23046;SDS011;11691;51.462;6.902;2022-07-23T02:37:32;11.45;;;7.90;;
23046;SDS011;11691;51.462;6.902;2022-07-23T02:39:57;10.48;;;7.53;;
23046;SDS011;11691;51.462;6.902;2022-07-23T02:42:23;12.27;;;7.93;;
23046;SDS011;11691;51.462;6.902;2022-07-23T02:44:49;9.27;;;7.10;;
23046;SDS011;11691;51.462;6.902;2022-07-23T02:47:16;11.45;;;8.35;;
23046;SDS011;11691;51.462;6.902;2022-07-23T02:49:42;11.93;;;7.68;;
23046;SDS011;11691;51.462;6.902;2022-07-23T02:52:07;11.55;;;7.63;;
23046;SDS011;11691;51.462;6.902;2022-07-23T02:54:35;10.45;;;6.93;;
23046;SDS011;11691;51.462;6.902;2022-07-23T02:57:01;12.23;;;8.18;;
23046;SDS011;11691;51.462;6.902;2022-07-23T02:59:27;9.70;;;6.90;;
23046;SDS011;11691;51.462;6.902;2022-07-23T03:01:53;11.07;;;7.60;;
23046;SDS011;11691;51.462;6.902;2022-07-23T03:04:19;10.85;;;8.00;;
23046;SDS011;11691;51.462;6.902;2022-07-23T03:06:45;10.52;;;8.15;;
23046;SDS011;11691;51.462;6.902;2022-07-23T03:09:11;10.77;;;7.53;;
23046;SDS011;11691;51.462;6.902;2022-07-23T03:11:37;12.27;;;7.63;;
23046;SDS011;11691;51.462;6.902;2022-07-23T03:14:03;9.82;;;7.63;;
23046;SDS011;11691;51.462;6.902;2022-07-23T03:16:30;11.10;;;7.55;;
23046;SDS011;11691;51.462;6.902;2022-07-23T03:18:56;12.18;;;7.32;;
23046;SDS011;11691;51.462;6.902;2022-07-23T03:21:22;10.00;;;7.18;;
23046;SDS011;11691;51.462;6.902;2022-07-23T03:23:48;12.20;;;7.80;;
23046;SDS011;11691;51.462;6.902;2022-07-23T03:26:14;13.40;;;8.18;;
23046;SDS011;11691;51.462;6.902;2022-07-23T03:28:40;9.45;;;7.38;;
23046;SDS011;11691;51.462;6.902;2022-07-23T03:31:06;9.65;;;7.90;;
23046;SDS011;11691;51.462;6.902;2022-07-23T03:33:32;10.02;;;8.18;;
23046;SDS011;11691;51.462;6.902;2022-07-23T03:35:58;8.82;;;7.22;;
23046;SDS011;11691;51.462;6.902;2022-07-23T03:38:24;9.57;;;8.13;;
23046;SDS011;11691;51.462;6.902;2022-07-23T03:40:50;10.77;;;8.05;;
23046;SDS011;11691;51.462;6.902;2022-07-23T03:43:16;12.05;;;8.20;;
23046;SDS011;11691;51.462;6.902;2022-07-23T03:45:42;9.30;;;7.95;;
23046;SDS011;11691;51.462;6.902;2022-07-23T03:48:08;12.00;;;7.43;;
23046;SDS011;11691;51.462;6.902;2022-07-23T03:50:34;11.45;;;7.85;;
23046;SDS011;11691;51.462;6.902;2022-07-23T03:52:59;11.82;;;7.82;;
23046;SDS011;11691;51.462;6.902;2022-07-23T03:55:25;10.93;;;7.90;;
23046;SDS011;11691;51.462;6.902;2022-07-23T03:57:51;10.35;;;7.57;;
23046;SDS011;11691;51.462;6.902;2022-07-23T04:00:17;11.20;;;8.07;;
23046;SDS011;11691;51.462;6.902;2022-07-23T04:02:43;8.88;;;7.30;;
23046;SDS011;11691;51.462;6.902;2022-07-23T04:05:09;9.73;;;7.90;;
23046;SDS011;11691;51.462;6.902;2022-07-23T04:07:35;12.32;;;8.15;;
23046;SDS011;11691;51.462;6.902;2022-07-23T04:10:01;10.73;;;7.53;;
23046;SDS011;11691;51.462;6.902;2022-07-23T04:12:27;15.73;;;8.25;;
23046;SDS011;11691;51.462;6.902;2022-07-23T04:14:53;9.68;;;8.25;;
23046;SDS011;11691;51.462;6.902;2022-07-23T04:17:19;10.50;;;8.30;;
23046;SDS011;11691;51.462;6.902;2022-07-23T04:19:45;11.63;;;8.50;;
23046;SDS011;11691;51.462;6.902;2022-07-23T04:22:11;9.80;;;7.80;;
23046;SDS011;11691;51.462;6.902;2022-07-23T04:24:37;9.05;;;7.55;;
23046;SDS011;11691;51.462;6.902;2022-07-23T04:27:04;9.27;;;8.02;;
23046;SDS011;11691;51.462;6.902;2022-07-23T04:29:30;9.73;;;8.30;;
23046;SDS011;11691;51.462;6.902;2022-07-23T04:31:55;12.68;;;8.25;;
23046;SDS011;11691;51.462;6.902;2022-07-23T04:34:21;10.57;;;8.35;;
23046;SDS011;11691;51.462;6.902;2022-07-23T04:36:47;12.25;;;8.27;;
23046;SDS011;11691;51.462;6.902;2022-07-23T04:39:14;9.93;;;7.82;;
23046;SDS011;11691;51.462;6.902;2022-07-23T04:41:40;13.00;;;7.40;;
23046;SDS011;11691;51.462;6.902;2022-07-23T04:44:06;9.88;;;7.68;;
23046;SDS011;11691;51.462;6.902;2022-07-23T04:46:32;12.68;;;8.52;;
23046;SDS011;11691;51.462;6.902;2022-07-23T04:48:58;13.30;;;9.00;;
23046;SDS011;11691;51.462;6.902;2022-07-23T04:51:24;11.10;;;7.50;;
23046;SDS011;11691;51.462;6.902;2022-07-23T04:53:50;10.40;;;8.73;;
23046;SDS011;11691;51.462;6.902;2022-07-23T04:56:16;12.35;;;9.05;;
23046;SDS011;11691;51.462;6.902;2022-07-23T04:58:42;12.45;;;9.60;;
23046;SDS011;11691;51.462;6.902;2022-07-23T05:01:08;10.82;;;9.02;;
23046;SDS011;11691;51.462;6.902;2022-07-23T05:03:34;12.63;;;8.75;;
23046;SDS011;11691;51.462;6.902;2022-07-23T05:06:00;11.38;;;8.98;;
23046;SDS011;11691;51.462;6.902;2022-07-23T05:08:28;12.30;;;8.90;;
23046;SDS011;11691;51.462;6.902;2022-07-23T05:10:53;11.95;;;9.52;;
23046;SDS011;11691;51.462;6.902;2022-07-23T05:13:19;13.88;;;9.07;;
23046;SDS011;11691;51.462;6.902;2022-07-23T05:15:45;16.30;;;10.43;;
23046;SDS011;11691;51.462;6.902;2022-07-23T05:18:11;13.65;;;9.10;;
23046;SDS011;11691;51.462;6.902;2022-07-23T05:20:37;14.48;;;9.77;;
23046;SDS011;11691;51.462;6.902;2022-07-23T05:23:03;15.70;;;10.07;;
23046;SDS011;11691;51.462;6.902;2022-07-23T05:25:29;14.45;;;10.30;;
23046;SDS011;11691;51.462;6.902;2022-07-23T05:27:55;15.80;;;10.52;;
23046;SDS011;11691;51.462;6.902;2022-07-23T05:30:21;14.35;;;10.32;;
23046;SDS011;11691;51.462;6.902;2022-07-23T05:32:47;12.52;;;9.88;;
23046;SDS011;11691;51.462;6.902;2022-07-23T05:35:13;14.15;;;9.88;;
23046;SDS011;11691;51.462;6.902;2022-07-23T05:37:39;13.32;;;9.82;;
23046;SDS011;11691;51.462;6.902;2022-07-23T05:40:06;13.07;;;10.65;;
23046;SDS011;11691;51.462;6.902;2022-07-23T05:42:33;14.80;;;10.35;;
23046;SDS011;11691;51.462;6.902;2022-07-23T05:45:00;16.05;;;10.68;;
23046;SDS011;11691;51.462;6.902;2022-07-23T05:47:25;13.50;;;10.73;;
23046;SDS011;11691;51.462;6.902;2022-07-23T05:49:51;15.15;;;10.85;;
23046;SDS011;11691;51.462;6.902;2022-07-23T05:52:17;13.18;;;10.05;;
23046;SDS011;11691;51.462;6.902;2022-07-23T05:54:43;16.48;;;11.43;;
23046;SDS011;11691;51.462;6.902;2022-07-23T05:57:09;16.05;;;10.68;;
23046;SDS011;11691;51.462;6.902;2022-07-23T05:59:36;15.15;;;10.68;;
23046;SDS011;11691;51.462;6.902;2022-07-23T06:02:02;12.73;;;10.82;;
23046;SDS011;11691;51.462;6.902;2022-07-23T06:04:28;14.70;;;11.40;;
23046;SDS011;11691;51.462;6.902;2022-07-23T06:06:54;16.67;;;12.15;;
23046;SDS011;11691;51.462;6.902;2022-07-23T06:09:20;15.57;;;10.90;;
23046;SDS011;11691;51.462;6.902;2022-07-23T06:11:46;18.08;;;10.77;;
23046;SDS011;11691;51.462;6.902;2022-07-23T06:14:12;18.65;;;13.82;;
23046;SDS011;11691;51.462;6.902;2022-07-23T06:16:38;15.55;;;12.30;;
23046;SDS011;11691;51.462;6.902;2022-07-23T06:19:04;18.70;;;14.40;;
23046;SDS011;11691;51.462;6.902;2022-07-23T06:21:30;25.52;;;15.35;;
23046;SDS011;11691;51.462;6.902;2022-07-23T06:23:56;20.50;;;14.90;;
23046;SDS011;11691;51.462;6.902;2022-07-23T06:26:22;16.23;;;13.10;;
23046;SDS011;11691;51.462;6.902;2022-07-23T06:28:48;19.05;;;13.18;;
23046;SDS011;11691;51.462;6.902;2022-07-23T06:31:14;16.10;;;12.63;;
23046;SDS011;11691;51.462;6.902;2022-07-23T06:33:40;20.15;;;12.75;;
23046;SDS011;11691;51.462;6.902;2022-07-23T06:36:06;20.25;;;14.50;;
23046;SDS011;11691;51.462;6.902;2022-07-23T06:38:32;21.55;;;13.60;;
23046;SDS011;11691;51.462;6.902;2022-07-23T06:40:58;22.25;;;13.95;;
23046;SDS011;11691;51.462;6.902;2022-07-23T06:43:24;23.63;;;15.55;;
23046;SDS011;11691;51.462;6.902;2022-07-23T06:45:50;25.48;;;14.93;;
23046;SDS011;11691;51.462;6.902;2022-07-23T06:48:16;23.13;;;15.27;;
23046;SDS011;11691;51.462;6.902;2022-07-23T06:50:42;22.05;;;15.60;;
23046;SDS011;11691;51.462;6.902;2022-07-23T06:53:08;21.10;;;15.07;;
23046;SDS011;11691;51.462;6.902;2022-07-23T06:55:33;20.70;;;14.43;;
23046;SDS011;11691;51.462;6.902;2022-07-23T06:58:03;22.33;;;14.27;;
23046;SDS011;11691;51.462;6.902;2022-07-23T07:00:29;25.90;;;15.63;;
23046;SDS011;11691;51.462;6.902;2022-07-23T07:02:56;22.70;;;14.63;;
23046;SDS011;11691;51.462;6.902;2022-07-23T07:05:22;19.52;;;13.85;;
23046;SDS011;11691;51.462;6.902;2022-07-23T07:07:48;22.05;;;13.90;;
23046;SDS011;11691;51.462;6.902;2022-07-23T07:10:13;16.05;;;12.45;;
23046;SDS011;11691;51.462;6.902;2022-07-23T07:12:41;21.30;;;13.48;;
23046;SDS011;11691;51.462;6.902;2022-07-23T07:15:07;20.35;;;13.77;;
23046;SDS011;11691;51.462;6.902;2022-07-23T07:17:33;22.70;;;13.57;;
23046;SDS011;11691;51.462;6.902;2022-07-23T07:19:59;19.33;;;13.55;;
23046;SDS011;11691;51.462;6.902;2022-07-23T07:22:25;18.67;;;13.77;;
23046;SDS011;11691;51.462;6.902;2022-07-23T07:24:51;22.55;;;13.05;;
23046;SDS011;11691;51.462;6.902;2022-07-23T07:27:17;15.38;;;11.63;;
23046;SDS011;11691;51.462;6.902;2022-07-23T07:29:43;13.48;;;9.45;;
23046;SDS011;11691;51.462;6.902;2022-07-23T07:32:09;13.05;;;7.63;;
23046;SDS011;11691;51.462;6.902;2022-07-23T07:34:35;12.57;;;5.93;;
23046;SDS011;11691;51.462;6.902;2022-07-23T07:37:01;9.27;;;5.40;;
23046;SDS011;11691;51.462;6.902;2022-07-23T07:39:27;10.43;;;6.15;;
23046;SDS011;11691;51.462;6.902;2022-07-23T07:41:53;7.28;;;6.22;;
23046;SDS011;11691;51.462;6.902;2022-07-23T07:44:19;8.63;;;5.95;;
23046;SDS011;11691;51.462;6.902;2022-07-23T07:46:45;8.68;;;5.07;;
23046;SDS011;11691;51.462;6.902;2022-07-23T07:49:12;9.35;;;5.13;;
23046;SDS011;11691;51.462;6.902;2022-07-23T07:51:38;6.32;;;4.65;;
23046;SDS011;11691;51.462;6.902;2022-07-23T07:54:04;6.43;;;5.20;;
23046;SDS011;11691;51.462;6.902;2022-07-23T07:56:30;7.05;;;4.72;;
23046;SDS011;11691;51.462;6.902;2022-07-23T07:58:55;6.95;;;4.13;;
23046;SDS011;11691;51.462;6.902;2022-07-23T08:01:21;5.32;;;4.38;;
23046;SDS011;11691;51.462;6.902;2022-07-23T08:03:47;10.35;;;4.85;;
23046;SDS011;11691;51.462;6.902;2022-07-23T08:06:13;8.05;;;4.50;;
23046;SDS011;11691;51.462;6.902;2022-07-23T08:08:38;7.65;;;4.00;;
23046;SDS011;11691;51.462;6.902;2022-07-23T08:11:04;8.82;;;3.88;;
23046;SDS011;11691;51.462;6.902;2022-07-23T08:13:30;5.32;;;3.08;;
23046;SDS011;11691;51.462;6.902;2022-07-23T08:15:57;4.97;;;2.88;;
23046;SDS011;11691;51.462;6.902;2022-07-23T08:18:23;5.05;;;3.33;;
23046;SDS011;11691;51.462;6.902;2022-07-23T08:20:49;6.05;;;3.22;;
23046;SDS011;11691;51.462;6.902;2022-07-23T08:23:15;5.88;;;2.45;;
23046;SDS011;11691;51.462;6.902;2022-07-23T08:25:44;6.68;;;2.90;;
23046;SDS011;11691;51.462;6.902;2022-07-23T08:28:11;5.97;;;2.70;;
23046;SDS011;11691;51.462;6.902;2022-07-23T08:30:39;4.63;;;2.95;;
23046;SDS011;11691;51.462;6.902;2022-07-23T08:35:40;6.20;;;2.83;;
23046;SDS011;11691;51.462;6.902;2022-07-23T08:38:12;5.75;;;2.53;;
23046;SDS011;11691;51.462;6.902;2022-07-23T08:40:40;5.43;;;2.80;;
23046;SDS011;11691;51.462;6.902;2022-07-23T08:43:20;4.65;;;2.28;;
23046;SDS011;11691;51.462;6.902;2022-07-23T08:45:53;3.38;;;2.33;;
23046;SDS011;11691;51.462;6.902;2022-07-23T08:48:24;4.05;;;1.95;;
23046;SDS011;11691;51.462;6.902;2022-07-23T08:50:52;2.80;;;1.98;;
23046;SDS011;11691;51.462;6.902;2022-07-23T08:53:20;5.97;;;2.30;;
23046;SDS011;11691;51.462;6.902;2022-07-23T08:55:48;5.20;;;2.50;;
23046;SDS011;11691;51.462;6.902;2022-07-23T08:58:16;3.95;;;2.63;;
23046;SDS011;11691;51.462;6.902;2022-07-23T09:00:42;3.53;;;2.10;;
23046;SDS011;11691;51.462;6.902;2022-07-23T09:03:13;5.43;;;2.85;;
23046;SDS011;11691;51.462;6.902;2022-07-23T09:05:40;6.70;;;2.92;;
23046;SDS011;11691;51.462;6.902;2022-07-23T09:08:10;4.47;;;2.10;;
23046;SDS011;11691;51.462;6.902;2022-07-23T09:10:46;5.78;;;2.33;;
23046;SDS011;11691;51.462;6.902;2022-07-23T09:16:00;3.25;;;1.92;;
23046;SDS011;11691;51.462;6.902;2022-07-23T09:18:35;2.53;;;1.85;;
23046;SDS011;11691;51.462;6.902;2022-07-23T09:23:36;5.22;;;1.98;;
23046;SDS011;11691;51.462;6.902;2022-07-23T09:26:16;5.35;;;2.50;;
23046;SDS011;11691;51.462;6.902;2022-07-23T09:31:17;4.15;;;2.10;;
23046;SDS011;11691;51.462;6.902;2022-07-23T09:33:43;4.55;;;2.10;;
23046;SDS011;11691;51.462;6.902;2022-07-23T09:36:09;5.20;;;2.30;;
23046;SDS011;11691;51.462;6.902;2022-07-23T09:38:34;2.97;;;2.20;;
23046;SDS011;11691;51.462;6.902;2022-07-23T09:41:12;3.55;;;2.15;;
23046;SDS011;11691;51.462;6.902;2022-07-23T09:43:39;4.45;;;2.42;;
23046;SDS011;11691;51.462;6.902;2022-07-23T09:48:48;4.05;;;2.13;;
23046;SDS011;11691;51.462;6.902;2022-07-23T09:51:14;3.35;;;2.10;;
23046;SDS011;11691;51.462;6.902;2022-07-23T09:53:59;3.80;;;1.77;;
23046;SDS011;11691;51.462;6.902;2022-07-23T09:56:25;5.82;;;1.80;;
23046;SDS011;11691;51.462;6.902;2022-07-23T09:58:53;2.00;;;1.30;;
23046;SDS011;11691;51.462;6.902;2022-07-23T10:01:32;2.72;;;1.33;;
23046;SDS011;11691;51.462;6.902;2022-07-23T10:03:59;2.65;;;1.60;;
23046;SDS011;11691;51.462;6.902;2022-07-23T10:06:25;3.03;;;1.73;;
23046;SDS011;11691;51.462;6.902;2022-07-23T10:08:53;2.35;;;1.75;;
23046;SDS011;11691;51.462;6.902;2022-07-23T10:11:23;4.97;;;1.85;;
23046;SDS011;11691;51.462;6.902;2022-07-23T10:13:49;4.40;;;1.67;;
23046;SDS011;11691;51.462;6.902;2022-07-23T10:16:20;1.77;;;1.40;;
23046;SDS011;11691;51.462;6.902;2022-07-23T10:18:47;3.13;;;1.98;;
23046;SDS011;11691;51.462;6.902;2022-07-23T10:21:16;4.50;;;1.80;;
23046;SDS011;11691;51.462;6.902;2022-07-23T10:23:50;4.78;;;1.67;;
23046;SDS011;11691;51.462;6.902;2022-07-23T10:26:19;3.38;;;1.70;;
23046;SDS011;11691;51.462;6.902;2022-07-23T10:31:40;3.10;;;1.45;;
23046;SDS011;11691;51.462;6.902;2022-07-23T10:36:55;1.98;;;1.40;;
23046;SDS011;11691;51.462;6.902;2022-07-23T10:41:48;3.25;;;1.77;;
23046;SDS011;11691;51.462;6.902;2022-07-23T10:44:19;2.88;;;1.50;;
23046;SDS011;11691;51.462;6.902;2022-07-23T10:49:45;3.40;;;1.80;;
23046;SDS011;11691;51.462;6.902;2022-07-23T10:54:53;2.53;;;1.60;;
23046;SDS011;11691;51.462;6.902;2022-07-23T10:57:47;2.42;;;1.35;;
23046;SDS011;11691;51.462;6.902;2022-07-23T11:02:49;2.10;;;1.10;;
23046;SDS011;11691;51.462;6.902;2022-07-23T11:05:21;3.50;;;1.42;;
23046;SDS011;11691;51.462;6.902;2022-07-23T11:10:51;2.45;;;1.40;;
23046;SDS011;11691;51.462;6.902;2022-07-23T11:24:07;2.20;;;1.23;;
23046;SDS011;11691;51.462;6.902;2022-07-23T11:26:58;3.95;;;1.40;;
23046;SDS011;11691;51.462;6.902;2022-07-23T11:34:43;3.45;;;1.20;;
23046;SDS011;11691;51.462;6.902;2022-07-23T11:40:06;1.60;;;1.38;;
23046;SDS011;11691;51.462;6.902;2022-07-23T11:42:41;3.25;;;1.30;;
23046;SDS011;11691;51.462;6.902;2022-07-23T11:45:31;1.65;;;1.20;;
23046;SDS011;11691;51.462;6.902;2022-07-23T11:47:58;5.28;;;1.20;;
23046;SDS011;11691;51.462;6.902;2022-07-23T11:50:24;2.03;;;1.10;;
23046;SDS011;11691;51.462;6.902;2022-07-23T11:52:53;2.13;;;1.23;;
23046;SDS011;11691;51.462;6.902;2022-07-23T11:55:19;2.33;;;1.35;;
23046;SDS011;11691;51.462;6.902;2022-07-23T11:57:46;3.20;;;1.25;;
23046;SDS011;11691;51.462;6.902;2022-07-23T12:00:13;3.95;;;1.20;;
23046;SDS011;11691;51.462;6.902;2022-07-23T12:02:43;1.45;;;1.23;;
23046;SDS011;11691;51.462;6.902;2022-07-23T12:05:13;1.67;;;1.27;;
23046;SDS011;11691;51.462;6.902;2022-07-23T12:07:41;1.63;;;1.20;;
23046;SDS011;11691;51.462;6.902;2022-07-23T12:10:15;2.60;;;1.00;;
23046;SDS011;11691;51.462;6.902;2022-07-23T12:12:43;2.05;;;1.27;;
23046;SDS011;11691;51.462;6.902;2022-07-23T12:15:11;1.92;;;1.30;;
23046;SDS011;11691;51.462;6.902;2022-07-23T12:17:39;2.10;;;1.40;;
23046;SDS011;11691;51.462;6.902;2022-07-23T12:20:07;3.10;;;1.17;;
23046;SDS011;11691;51.462;6.902;2022-07-23T12:22:38;3.80;;;1.13;;
23046;SDS011;11691;51.462;6.902;2022-07-23T12:25:05;2.72;;;1.48;;
23046;SDS011;11691;51.462;6.902;2022-07-23T12:27:41;1.52;;;0.90;;
23046;SDS011;11691;51.462;6.902;2022-07-23T12:33:01;2.05;;;1.10;;
23046;SDS011;11691;51.462;6.902;2022-07-23T12:35:31;1.90;;;1.08;;
23046;SDS011;11691;51.462;6.902;2022-07-23T12:38:06;2.78;;;1.50;;
23046;SDS011;11691;51.462;6.902;2022-07-23T12:40:34;1.85;;;1.10;;
23046;SDS011;11691;51.462;6.902;2022-07-23T12:43:05;2.13;;;1.40;;
23046;SDS011;11691;51.462;6.902;2022-07-23T12:45:47;2.35;;;1.25;;
23046;SDS011;11691;51.462;6.902;2022-07-23T12:53:10;2.17;;;1.10;;
23046;SDS011;11691;51.462;6.902;2022-07-23T12:55:36;2.88;;;1.40;;
23046;SDS011;11691;51.462;6.902;2022-07-23T12:58:13;1.63;;;1.10;;
23046;SDS011;11691;51.462;6.902;2022-07-23T13:06:06;3.15;;;1.30;;
23046;SDS011;11691;51.462;6.902;2022-07-23T13:08:33;2.65;;;1.15;;
23046;SDS011;11691;51.462;6.902;2022-07-23T13:11:00;3.25;;;1.17;;
23046;SDS011;11691;51.462;6.902;2022-07-23T13:13:27;2.40;;;1.25;;
23046;SDS011;11691;51.462;6.902;2022-07-23T13:15:54;2.67;;;1.00;;
23046;SDS011;11691;51.462;6.902;2022-07-23T13:18:20;2.95;;;1.40;;
23046;SDS011;11691;51.462;6.902;2022-07-23T13:20:46;2.33;;;1.20;;
23046;SDS011;11691;51.462;6.902;2022-07-23T13:23:13;1.40;;;1.05;;
23046;SDS011;11691;51.462;6.902;2022-07-23T13:25:40;1.65;;;1.23;;
23046;SDS011;11691;51.462;6.902;2022-07-23T13:28:06;2.03;;;1.42;;
23046;SDS011;11691;51.462;6.902;2022-07-23T13:30:32;2.78;;;1.20;;
23046;SDS011;11691;51.462;6.902;2022-07-23T13:32:58;2.95;;;1.15;;
23046;SDS011;11691;51.462;6.902;2022-07-23T13:35:24;2.13;;;1.30;;
23046;SDS011;11691;51.462;6.902;2022-07-23T13:37:50;2.08;;;1.30;;
23046;SDS011;11691;51.462;6.902;2022-07-23T13:40:16;3.15;;;1.30;;
23046;SDS011;11691;51.462;6.902;2022-07-23T13:42:42;3.90;;;2.05;;
23046;SDS011;11691;51.462;6.902;2022-07-23T13:45:08;2.33;;;1.50;;
23046;SDS011;11691;51.462;6.902;2022-07-23T13:47:34;2.20;;;1.45;;
23046;SDS011;11691;51.462;6.902;2022-07-23T13:50:00;3.47;;;1.50;;
23046;SDS011;11691;51.462;6.902;2022-07-23T13:52:26;3.67;;;1.52;;
23046;SDS011;11691;51.462;6.902;2022-07-23T13:54:52;2.85;;;1.42;;
23046;SDS011;11691;51.462;6.902;2022-07-23T13:57:18;2.35;;;1.58;;
23046;SDS011;11691;51.462;6.902;2022-07-23T13:59:44;2.15;;;1.40;;
23046;SDS011;11691;51.462;6.902;2022-07-23T14:02:10;2.63;;;1.67;;
23046;SDS011;11691;51.462;6.902;2022-07-23T14:04:39;3.63;;;1.80;;
23046;SDS011;11691;51.462;6.902;2022-07-23T14:07:05;3.42;;;1.52;;
23046;SDS011;11691;51.462;6.902;2022-07-23T14:09:31;2.60;;;1.58;;
23046;SDS011;11691;51.462;6.902;2022-07-23T14:11:59;3.55;;;1.52;;
23046;SDS011;11691;51.462;6.902;2022-07-23T14:14:25;2.33;;;1.42;;
23046;SDS011;11691;51.462;6.902;2022-07-23T14:16:51;3.55;;;1.58;;
23046;SDS011;11691;51.462;6.902;2022-07-23T14:19:17;3.28;;;1.90;;
23046;SDS011;11691;51.462;6.902;2022-07-23T14:21:43;4.65;;;1.70;;
23046;SDS011;11691;51.462;6.902;2022-07-23T14:24:09;4.00;;;1.85;;
23046;SDS011;11691;51.462;6.902;2022-07-23T14:26:35;2.88;;;1.60;;
23046;SDS011;11691;51.462;6.902;2022-07-23T14:29:01;1.55;;;1.35;;
23046;SDS011;11691;51.462;6.902;2022-07-23T14:31:27;4.50;;;1.50;;
23046;SDS011;11691;51.462;6.902;2022-07-23T14:33:53;3.85;;;1.70;;
23046;SDS011;11691;51.462;6.902;2022-07-23T14:36:19;3.55;;;1.80;;
23046;SDS011;11691;51.462;6.902;2022-07-23T14:38:45;2.63;;;1.55;;
23046;SDS011;11691;51.462;6.902;2022-07-23T14:41:11;3.25;;;1.88;;
23046;SDS011;11691;51.462;6.902;2022-07-23T14:43:37;3.80;;;2.00;;
23046;SDS011;11691;51.462;6.902;2022-07-23T14:46:03;5.05;;;2.15;;
23046;SDS011;11691;51.462;6.902;2022-07-23T14:48:29;3.38;;;1.55;;
23046;SDS011;11691;51.462;6.902;2022-07-23T14:50:55;1.58;;;1.45;;
23046;SDS011;11691;51.462;6.902;2022-07-23T14:53:21;1.60;;;1.50;;
23046;SDS011;11691;51.462;6.902;2022-07-23T14:55:47;2.35;;;1.60;;
23046;SDS011;11691;51.462;6.902;2022-07-23T14:58:13;2.15;;;1.85;;
23046;SDS011;11691;51.462;6.902;2022-07-23T15:00:39;3.03;;;1.90;;
23046;SDS011;11691;51.462;6.902;2022-07-23T15:03:06;2.60;;;1.80;;
23046;SDS011;11691;51.462;6.902;2022-07-23T15:05:32;2.13;;;1.80;;
23046;SDS011;11691;51.462;6.902;2022-07-23T15:07:58;3.00;;;2.25;;
23046;SDS011;11691;51.462;6.902;2022-07-23T15:10:24;4.82;;;2.00;;
23046;SDS011;11691;51.462;6.902;2022-07-23T15:12:50;3.42;;;1.98;;
23046;SDS011;11691;51.462;6.902;2022-07-23T15:15:16;4.80;;;2.33;;
23046;SDS011;11691;51.462;6.902;2022-07-23T15:17:42;2.78;;;2.13;;
23046;SDS011;11691;51.462;6.902;2022-07-23T15:20:09;3.33;;;2.65;;
23046;SDS011;11691;51.462;6.902;2022-07-23T15:22:35;4.50;;;2.42;;
23046;SDS011;11691;51.462;6.902;2022-07-23T15:25:01;4.20;;;2.60;;
23046;SDS011;11691;51.462;6.902;2022-07-23T15:27:27;5.45;;;2.78;;
23046;SDS011;11691;51.462;6.902;2022-07-23T15:29:53;7.18;;;2.72;;
23046;SDS011;11691;51.462;6.902;2022-07-23T15:32:19;4.32;;;2.55;;
23046;SDS011;11691;51.462;6.902;2022-07-23T15:34:45;3.30;;;2.03;;
23046;SDS011;11691;51.462;6.902;2022-07-23T15:37:11;3.67;;;2.25;;
23046;SDS011;11691;51.462;6.902;2022-07-23T15:39:37;3.95;;;2.47;;
23046;SDS011;11691;51.462;6.902;2022-07-23T15:42:03;4.57;;;2.63;;
23046;SDS011;11691;51.462;6.902;2022-07-23T15:44:29;3.50;;;2.53;;